sensor_id;sensor_type;location;lat;lon;timestamp;P1;durP1;ratioP1;P2;durP2;ratioP2
59854;SDS011;45732;52.850;6.896;2022-07-29T00:00:05;5.78;;;2.78;;
59854;SDS011;45732;52.850;6.896;2022-07-29T00:02:32;4.22;;;1.95;;
59854;SDS011;45732;52.850;6.896;2022-07-29T00:04:58;4.78;;;1.90;;
59854;SDS011;45732;52.850;6.896;2022-07-29T00:07:24;3.95;;;1.90;;
59854;SDS011;45732;52.850;6.896;2022-07-29T00:09:50;4.47;;;2.00;;
59854;SDS011;45732;52.850;6.896;2022-07-29T00:12:15;5.05;;;2.05;;
59854;SDS011;45732;52.850;6.896;2022-07-29T00:14:41;5.50;;;2.35;;
59854;SDS011;45732;52.850;6.896;2022-07-29T00:17:07;4.60;;;2.13;;
59854;SDS011;45732;52.850;6.896;2022-07-29T00:19:33;4.65;;;2.20;;
59854;SDS011;45732;52.850;6.896;2022-07-29T00:21:59;4.78;;;2.17;;
59854;SDS011;45732;52.850;6.896;2022-07-29T00:24:25;5.10;;;2.28;;
59854;SDS011;45732;52.850;6.896;2022-07-29T00:26:51;5.40;;;2.53;;
59854;SDS011;45732;52.850;6.896;2022-07-29T00:29:17;3.95;;;2.10;;
59854;SDS011;45732;52.850;6.896;2022-07-29T00:31:42;5.07;;;2.10;;
59854;SDS011;45732;52.850;6.896;2022-07-29T00:34:08;4.60;;;2.30;;
59854;SDS011;45732;52.850;6.896;2022-07-29T00:36:54;4.97;;;2.08;;
59854;SDS011;45732;52.850;6.896;2022-07-29T00:39:20;3.83;;;2.10;;
59854;SDS011;45732;52.850;6.896;2022-07-29T00:41:45;3.78;;;1.75;;
59854;SDS011;45732;52.850;6.896;2022-07-29T00:44:11;4.82;;;2.10;;
59854;SDS011;45732;52.850;6.896;2022-07-29T00:46:37;6.35;;;2.25;;
59854;SDS011;45732;52.850;6.896;2022-07-29T00:49:02;4.07;;;2.05;;
59854;SDS011;45732;52.850;6.896;2022-07-29T00:51:28;4.45;;;2.50;;
59854;SDS011;45732;52.850;6.896;2022-07-29T00:53:55;7.07;;;2.55;;
59854;SDS011;45732;52.850;6.896;2022-07-29T00:56:21;5.20;;;2.80;;
59854;SDS011;45732;52.850;6.896;2022-07-29T00:58:47;4.93;;;2.55;;
59854;SDS011;45732;52.850;6.896;2022-07-29T01:01:15;5.85;;;2.50;;
59854;SDS011;45732;52.850;6.896;2022-07-29T01:03:41;6.80;;;2.50;;
59854;SDS011;45732;52.850;6.896;2022-07-29T01:06:07;4.03;;;2.42;;
59854;SDS011;45732;52.850;6.896;2022-07-29T01:08:33;5.38;;;2.50;;
59854;SDS011;45732;52.850;6.896;2022-07-29T01:11:01;4.30;;;2.50;;
59854;SDS011;45732;52.850;6.896;2022-07-29T01:13:27;3.85;;;2.20;;
59854;SDS011;45732;52.850;6.896;2022-07-29T01:15:56;5.45;;;2.50;;
59854;SDS011;45732;52.850;6.896;2022-07-29T01:18:34;4.22;;;2.45;;
59854;SDS011;45732;52.850;6.896;2022-07-29T01:26:49;5.95;;;2.60;;
59854;SDS011;45732;52.850;6.896;2022-07-29T01:29:29;6.03;;;2.90;;
59854;SDS011;45732;52.850;6.896;2022-07-29T01:37:17;4.25;;;2.47;;
59854;SDS011;45732;52.850;6.896;2022-07-29T01:39:46;4.30;;;2.33;;
59854;SDS011;45732;52.850;6.896;2022-07-29T01:42:15;6.55;;;2.55;;
59854;SDS011;45732;52.850;6.896;2022-07-29T01:47:35;6.70;;;2.55;;
59854;SDS011;45732;52.850;6.896;2022-07-29T01:50:06;5.15;;;2.58;;
59854;SDS011;45732;52.850;6.896;2022-07-29T01:52:36;5.95;;;2.47;;
59854;SDS011;45732;52.850;6.896;2022-07-29T01:55:25;4.80;;;2.28;;
59854;SDS011;45732;52.850;6.896;2022-07-29T01:57:54;6.57;;;2.40;;
59854;SDS011;45732;52.850;6.896;2022-07-29T02:00:23;5.95;;;2.78;;
59854;SDS011;45732;52.850;6.896;2022-07-29T02:02:51;4.75;;;2.30;;
59854;SDS011;45732;52.850;6.896;2022-07-29T02:05:20;5.45;;;2.30;;
59854;SDS011;45732;52.850;6.896;2022-07-29T02:07:48;5.18;;;2.40;;
59854;SDS011;45732;52.850;6.896;2022-07-29T02:10:17;5.60;;;2.42;;
59854;SDS011;45732;52.850;6.896;2022-07-29T02:12:47;5.95;;;2.75;;
59854;SDS011;45732;52.850;6.896;2022-07-29T02:15:15;4.07;;;2.40;;
59854;SDS011;45732;52.850;6.896;2022-07-29T02:17:44;6.47;;;2.50;;
59854;SDS011;45732;52.850;6.896;2022-07-29T02:20:13;5.68;;;2.50;;
59854;SDS011;45732;52.850;6.896;2022-07-29T02:22:40;6.55;;;2.47;;
59854;SDS011;45732;52.850;6.896;2022-07-29T02:25:10;5.22;;;2.60;;
59854;SDS011;45732;52.850;6.896;2022-07-29T02:27:37;5.72;;;2.30;;
59854;SDS011;45732;52.850;6.896;2022-07-29T02:30:04;5.18;;;2.35;;
59854;SDS011;45732;52.850;6.896;2022-07-29T02:32:31;5.80;;;2.67;;
59854;SDS011;45732;52.850;6.896;2022-07-29T02:34:59;5.82;;;2.45;;
59854;SDS011;45732;52.850;6.896;2022-07-29T02:37:26;4.97;;;2.25;;
59854;SDS011;45732;52.850;6.896;2022-07-29T02:39:54;5.07;;;2.20;;
59854;SDS011;45732;52.850;6.896;2022-07-29T02:42:23;5.32;;;2.25;;
59854;SDS011;45732;52.850;6.896;2022-07-29T02:44:51;4.22;;;2.10;;
59854;SDS011;45732;52.850;6.896;2022-07-29T02:47:24;4.15;;;2.38;;
59854;SDS011;45732;52.850;6.896;2022-07-29T02:50:02;4.05;;;2.20;;
59854;SDS011;45732;52.850;6.896;2022-07-29T02:58:21;4.65;;;2.13;;
59854;SDS011;45732;52.850;6.896;2022-07-29T03:00:53;5.95;;;2.30;;
59854;SDS011;45732;52.850;6.896;2022-07-29T03:03:22;4.03;;;2.15;;
59854;SDS011;45732;52.850;6.896;2022-07-29T03:05:53;6.80;;;1.95;;
59854;SDS011;45732;52.850;6.896;2022-07-29T03:08:20;5.32;;;2.28;;
59854;SDS011;45732;52.850;6.896;2022-07-29T03:10:46;4.82;;;2.15;;
59854;SDS011;45732;52.850;6.896;2022-07-29T03:13:13;3.78;;;2.22;;
59854;SDS011;45732;52.850;6.896;2022-07-29T03:15:42;5.72;;;2.35;;
59854;SDS011;45732;52.850;6.896;2022-07-29T03:18:09;6.25;;;2.30;;
59854;SDS011;45732;52.850;6.896;2022-07-29T03:20:35;5.68;;;1.95;;
59854;SDS011;45732;52.850;6.896;2022-07-29T03:23:02;4.22;;;2.10;;
59854;SDS011;45732;52.850;6.896;2022-07-29T03:25:28;4.85;;;2.30;;
59854;SDS011;45732;52.850;6.896;2022-07-29T03:27:54;5.28;;;2.20;;
59854;SDS011;45732;52.850;6.896;2022-07-29T03:30:19;5.30;;;2.75;;
59854;SDS011;45732;52.850;6.896;2022-07-29T03:32:45;6.72;;;2.30;;
59854;SDS011;45732;52.850;6.896;2022-07-29T03:35:11;4.68;;;2.10;;
59854;SDS011;45732;52.850;6.896;2022-07-29T03:37:36;4.75;;;2.53;;
59854;SDS011;45732;52.850;6.896;2022-07-29T03:40:05;3.97;;;2.25;;
59854;SDS011;45732;52.850;6.896;2022-07-29T03:42:34;4.55;;;2.30;;
59854;SDS011;45732;52.850;6.896;2022-07-29T03:45:03;6.15;;;2.30;;
59854;SDS011;45732;52.850;6.896;2022-07-29T03:47:32;5.05;;;2.47;;
59854;SDS011;45732;52.850;6.896;2022-07-29T03:50:02;5.95;;;2.45;;
59854;SDS011;45732;52.850;6.896;2022-07-29T03:52:31;4.97;;;2.13;;
59854;SDS011;45732;52.850;6.896;2022-07-29T03:54:57;5.55;;;2.40;;
59854;SDS011;45732;52.850;6.896;2022-07-29T03:57:24;6.22;;;2.40;;
59854;SDS011;45732;52.850;6.896;2022-07-29T03:59:52;5.00;;;2.22;;
59854;SDS011;45732;52.850;6.896;2022-07-29T04:02:19;4.90;;;1.95;;
59854;SDS011;45732;52.850;6.896;2022-07-29T04:04:46;4.47;;;2.08;;
59854;SDS011;45732;52.850;6.896;2022-07-29T04:07:12;7.53;;;3.05;;
59854;SDS011;45732;52.850;6.896;2022-07-29T04:09:39;7.00;;;2.78;;
59854;SDS011;45732;52.850;6.896;2022-07-29T04:12:05;5.60;;;2.58;;
59854;SDS011;45732;52.850;6.896;2022-07-29T04:14:31;6.85;;;2.55;;
59854;SDS011;45732;52.850;6.896;2022-07-29T04:16:58;5.85;;;2.50;;
59854;SDS011;45732;52.850;6.896;2022-07-29T04:19:24;6.72;;;2.67;;
59854;SDS011;45732;52.850;6.896;2022-07-29T04:21:50;5.15;;;2.38;;
59854;SDS011;45732;52.850;6.896;2022-07-29T04:24:16;9.70;;;2.60;;
59854;SDS011;45732;52.850;6.896;2022-07-29T04:26:42;6.13;;;2.20;;
59854;SDS011;45732;52.850;6.896;2022-07-29T04:29:08;6.15;;;2.70;;
59854;SDS011;45732;52.850;6.896;2022-07-29T04:31:34;4.25;;;2.40;;
59854;SDS011;45732;52.850;6.896;2022-07-29T04:33:59;6.85;;;2.58;;
59854;SDS011;45732;52.850;6.896;2022-07-29T04:36:25;5.28;;;2.40;;
59854;SDS011;45732;52.850;6.896;2022-07-29T04:38:51;7.57;;;2.35;;
59854;SDS011;45732;52.850;6.896;2022-07-29T04:41:16;7.82;;;2.30;;
59854;SDS011;45732;52.850;6.896;2022-07-29T04:43:42;6.88;;;2.40;;
59854;SDS011;45732;52.850;6.896;2022-07-29T04:46:08;7.30;;;2.38;;
59854;SDS011;45732;52.850;6.896;2022-07-29T04:48:33;5.80;;;2.47;;
59854;SDS011;45732;52.850;6.896;2022-07-29T04:50:59;6.75;;;2.70;;
59854;SDS011;45732;52.850;6.896;2022-07-29T04:53:25;5.35;;;2.30;;
59854;SDS011;45732;52.850;6.896;2022-07-29T04:55:51;5.53;;;2.08;;
59854;SDS011;45732;52.850;6.896;2022-07-29T04:58:16;3.70;;;2.15;;
59854;SDS011;45732;52.850;6.896;2022-07-29T05:00:42;5.40;;;2.10;;
59854;SDS011;45732;52.850;6.896;2022-07-29T05:03:08;7.65;;;2.28;;
59854;SDS011;45732;52.850;6.896;2022-07-29T05:05:34;6.32;;;2.10;;
59854;SDS011;45732;52.850;6.896;2022-07-29T05:07:59;5.88;;;2.10;;
59854;SDS011;45732;52.850;6.896;2022-07-29T05:10:25;3.28;;;1.90;;
59854;SDS011;45732;52.850;6.896;2022-07-29T05:12:51;8.65;;;2.40;;
59854;SDS011;45732;52.850;6.896;2022-07-29T05:15:17;4.35;;;2.15;;
59854;SDS011;45732;52.850;6.896;2022-07-29T05:17:43;4.25;;;2.00;;
59854;SDS011;45732;52.850;6.896;2022-07-29T05:20:09;5.32;;;2.00;;
59854;SDS011;45732;52.850;6.896;2022-07-29T05:22:35;5.70;;;2.10;;
59854;SDS011;45732;52.850;6.896;2022-07-29T05:25:01;4.90;;;2.20;;
59854;SDS011;45732;52.850;6.896;2022-07-29T05:27:27;4.85;;;2.20;;
59854;SDS011;45732;52.850;6.896;2022-07-29T05:29:53;7.75;;;2.40;;
59854;SDS011;45732;52.850;6.896;2022-07-29T05:32:18;6.95;;;2.25;;
59854;SDS011;45732;52.850;6.896;2022-07-29T05:34:44;6.45;;;2.25;;
59854;SDS011;45732;52.850;6.896;2022-07-29T05:37:10;5.55;;;2.15;;
59854;SDS011;45732;52.850;6.896;2022-07-29T05:39:38;5.80;;;2.33;;
59854;SDS011;45732;52.850;6.896;2022-07-29T05:42:07;8.50;;;2.30;;
59854;SDS011;45732;52.850;6.896;2022-07-29T05:44:37;4.88;;;2.20;;
59854;SDS011;45732;52.850;6.896;2022-07-29T05:47:03;6.68;;;2.30;;
59854;SDS011;45732;52.850;6.896;2022-07-29T05:49:29;6.63;;;2.30;;
59854;SDS011;45732;52.850;6.896;2022-07-29T05:51:55;5.10;;;2.30;;
59854;SDS011;45732;52.850;6.896;2022-07-29T05:54:21;6.85;;;2.22;;
59854;SDS011;45732;52.850;6.896;2022-07-29T05:56:46;6.95;;;2.20;;
59854;SDS011;45732;52.850;6.896;2022-07-29T05:59:12;8.50;;;2.20;;
59854;SDS011;45732;52.850;6.896;2022-07-29T06:01:38;8.23;;;2.20;;
59854;SDS011;45732;52.850;6.896;2022-07-29T06:04:05;6.13;;;2.15;;
59854;SDS011;45732;52.850;6.896;2022-07-29T06:06:31;6.35;;;2.22;;
59854;SDS011;45732;52.850;6.896;2022-07-29T06:08:58;7.22;;;2.28;;
59854;SDS011;45732;52.850;6.896;2022-07-29T06:11:24;5.75;;;2.22;;
59854;SDS011;45732;52.850;6.896;2022-07-29T06:13:50;9.88;;;2.53;;
59854;SDS011;45732;52.850;6.896;2022-07-29T06:16:15;5.90;;;1.80;;
59854;SDS011;45732;52.850;6.896;2022-07-29T06:18:41;5.38;;;2.22;;
59854;SDS011;45732;52.850;6.896;2022-07-29T06:21:07;6.13;;;2.17;;
59854;SDS011;45732;52.850;6.896;2022-07-29T06:23:35;7.50;;;2.30;;
59854;SDS011;45732;52.850;6.896;2022-07-29T06:26:04;5.68;;;2.00;;
59854;SDS011;45732;52.850;6.896;2022-07-29T06:28:31;4.15;;;2.20;;
59854;SDS011;45732;52.850;6.896;2022-07-29T06:30:57;4.35;;;2.03;;
59854;SDS011;45732;52.850;6.896;2022-07-29T06:33:23;5.68;;;2.00;;
59854;SDS011;45732;52.850;6.896;2022-07-29T06:35:48;5.47;;;2.08;;
59854;SDS011;45732;52.850;6.896;2022-07-29T06:38:14;7.72;;;2.30;;
59854;SDS011;45732;52.850;6.896;2022-07-29T06:40:41;5.72;;;2.13;;
59854;SDS011;45732;52.850;6.896;2022-07-29T06:43:27;5.05;;;2.17;;
59854;SDS011;45732;52.850;6.896;2022-07-29T06:46:04;5.53;;;2.10;;
59854;SDS011;45732;52.850;6.896;2022-07-29T06:48:32;5.63;;;2.30;;
59854;SDS011;45732;52.850;6.896;2022-07-29T06:50:59;5.95;;;2.33;;
59854;SDS011;45732;52.850;6.896;2022-07-29T06:53:25;4.75;;;2.40;;
59854;SDS011;45732;52.850;6.896;2022-07-29T06:55:51;7.22;;;2.30;;
59854;SDS011;45732;52.850;6.896;2022-07-29T06:58:17;6.15;;;2.35;;
59854;SDS011;45732;52.850;6.896;2022-07-29T07:00:45;6.60;;;2.50;;
59854;SDS011;45732;52.850;6.896;2022-07-29T07:03:12;7.28;;;2.15;;
59854;SDS011;45732;52.850;6.896;2022-07-29T07:05:39;5.43;;;2.10;;
59854;SDS011;45732;52.850;6.896;2022-07-29T07:08:05;6.18;;;2.03;;
59854;SDS011;45732;52.850;6.896;2022-07-29T07:10:31;5.45;;;2.40;;
59854;SDS011;45732;52.850;6.896;2022-07-29T07:12:58;8.05;;;2.30;;
59854;SDS011;45732;52.850;6.896;2022-07-29T07:15:24;6.55;;;2.20;;
59854;SDS011;45732;52.850;6.896;2022-07-29T07:17:50;5.05;;;2.30;;
59854;SDS011;45732;52.850;6.896;2022-07-29T07:20:16;6.63;;;2.10;;
59854;SDS011;45732;52.850;6.896;2022-07-29T07:22:42;5.07;;;2.22;;
59854;SDS011;45732;52.850;6.896;2022-07-29T07:25:08;5.25;;;2.05;;
59854;SDS011;45732;52.850;6.896;2022-07-29T07:27:35;6.38;;;2.40;;
59854;SDS011;45732;52.850;6.896;2022-07-29T07:30:02;6.53;;;2.30;;
59854;SDS011;45732;52.850;6.896;2022-07-29T07:32:30;6.25;;;2.30;;
59854;SDS011;45732;52.850;6.896;2022-07-29T07:34:57;7.40;;;2.38;;
59854;SDS011;45732;52.850;6.896;2022-07-29T07:37:23;10.73;;;2.30;;
59854;SDS011;45732;52.850;6.896;2022-07-29T07:39:50;8.65;;;2.50;;
59854;SDS011;45732;52.850;6.896;2022-07-29T07:42:19;8.35;;;2.30;;
59854;SDS011;45732;52.850;6.896;2022-07-29T07:44:45;7.20;;;2.33;;
59854;SDS011;45732;52.850;6.896;2022-07-29T07:47:14;8.82;;;2.78;;
59854;SDS011;45732;52.850;6.896;2022-07-29T07:49:40;5.03;;;2.28;;
59854;SDS011;45732;52.850;6.896;2022-07-29T07:52:06;6.15;;;2.10;;
59854;SDS011;45732;52.850;6.896;2022-07-29T07:54:31;6.53;;;2.13;;
59854;SDS011;45732;52.850;6.896;2022-07-29T07:56:57;6.28;;;2.30;;
59854;SDS011;45732;52.850;6.896;2022-07-29T07:59:23;7.25;;;2.53;;
59854;SDS011;45732;52.850;6.896;2022-07-29T08:01:49;7.45;;;2.03;;
59854;SDS011;45732;52.850;6.896;2022-07-29T08:04:15;7.07;;;2.15;;
59854;SDS011;45732;52.850;6.896;2022-07-29T08:06:41;8.40;;;2.08;;
59854;SDS011;45732;52.850;6.896;2022-07-29T08:09:07;5.75;;;2.20;;
59854;SDS011;45732;52.850;6.896;2022-07-29T08:11:33;5.15;;;2.17;;
59854;SDS011;45732;52.850;6.896;2022-07-29T08:13:58;8.45;;;2.30;;
59854;SDS011;45732;52.850;6.896;2022-07-29T08:16:26;5.93;;;2.53;;
59854;SDS011;45732;52.850;6.896;2022-07-29T08:18:53;6.90;;;2.40;;
59854;SDS011;45732;52.850;6.896;2022-07-29T08:21:22;5.72;;;2.20;;
59854;SDS011;45732;52.850;6.896;2022-07-29T08:23:48;6.78;;;2.20;;
59854;SDS011;45732;52.850;6.896;2022-07-29T08:26:17;7.15;;;2.20;;
59854;SDS011;45732;52.850;6.896;2022-07-29T08:28:47;8.68;;;2.40;;
59854;SDS011;45732;52.850;6.896;2022-07-29T08:31:15;5.10;;;2.30;;
59854;SDS011;45732;52.850;6.896;2022-07-29T08:33:41;5.72;;;2.10;;
59854;SDS011;45732;52.850;6.896;2022-07-29T08:36:07;7.50;;;2.30;;
59854;SDS011;45732;52.850;6.896;2022-07-29T08:38:33;9.32;;;2.53;;
59854;SDS011;45732;52.850;6.896;2022-07-29T08:41:02;8.18;;;2.20;;
59854;SDS011;45732;52.850;6.896;2022-07-29T08:43:28;5.60;;;1.95;;
59854;SDS011;45732;52.850;6.896;2022-07-29T08:45:54;8.02;;;2.35;;
59854;SDS011;45732;52.850;6.896;2022-07-29T08:48:23;5.18;;;2.20;;
59854;SDS011;45732;52.850;6.896;2022-07-29T08:50:52;5.72;;;2.42;;
59854;SDS011;45732;52.850;6.896;2022-07-29T08:53:19;6.85;;;2.20;;
59854;SDS011;45732;52.850;6.896;2022-07-29T08:55:46;7.32;;;2.58;;
59854;SDS011;45732;52.850;6.896;2022-07-29T08:58:13;8.07;;;2.60;;
59854;SDS011;45732;52.850;6.896;2022-07-29T09:00:41;6.68;;;2.75;;
59854;SDS011;45732;52.850;6.896;2022-07-29T09:03:15;5.65;;;2.30;;
59854;SDS011;45732;52.850;6.896;2022-07-29T09:05:44;7.47;;;2.47;;
59854;SDS011;45732;52.850;6.896;2022-07-29T09:08:11;9.27;;;2.97;;
59854;SDS011;45732;52.850;6.896;2022-07-29T09:10:38;6.43;;;2.55;;
59854;SDS011;45732;52.850;6.896;2022-07-29T09:13:04;5.95;;;2.33;;
59854;SDS011;45732;52.850;6.896;2022-07-29T09:15:30;7.07;;;2.75;;
59854;SDS011;45732;52.850;6.896;2022-07-29T09:17:56;7.80;;;2.30;;
59854;SDS011;45732;52.850;6.896;2022-07-29T09:20:24;6.97;;;2.45;;
59854;SDS011;45732;52.850;6.896;2022-07-29T09:22:50;7.30;;;2.50;;
59854;SDS011;45732;52.850;6.896;2022-07-29T09:28:06;10.35;;;2.83;;
59854;SDS011;45732;52.850;6.896;2022-07-29T09:30:32;6.28;;;2.33;;
59854;SDS011;45732;52.850;6.896;2022-07-29T09:32:59;7.60;;;2.40;;
59854;SDS011;45732;52.850;6.896;2022-07-29T09:35:26;7.15;;;2.60;;
59854;SDS011;45732;52.850;6.896;2022-07-29T09:37:53;9.25;;;2.60;;
59854;SDS011;45732;52.850;6.896;2022-07-29T09:40:23;7.25;;;2.97;;
59854;SDS011;45732;52.850;6.896;2022-07-29T09:42:53;6.97;;;2.50;;
59854;SDS011;45732;52.850;6.896;2022-07-29T09:45:30;6.22;;;2.50;;
59854;SDS011;45732;52.850;6.896;2022-07-29T09:47:57;8.48;;;2.30;;
59854;SDS011;45732;52.850;6.896;2022-07-29T09:50:34;8.25;;;2.40;;
59854;SDS011;45732;52.850;6.896;2022-07-29T09:53:05;6.47;;;2.40;;
59854;SDS011;45732;52.850;6.896;2022-07-29T09:55:30;7.72;;;2.88;;
59854;SDS011;45732;52.850;6.896;2022-07-29T10:00:52;7.72;;;2.53;;
59854;SDS011;45732;52.850;6.896;2022-07-29T10:03:19;7.10;;;2.88;;
59854;SDS011;45732;52.850;6.896;2022-07-29T10:05:46;7.25;;;2.50;;
59854;SDS011;45732;52.850;6.896;2022-07-29T10:08:28;7.45;;;2.67;;
59854;SDS011;45732;52.850;6.896;2022-07-29T10:11:02;9.07;;;2.70;;
59854;SDS011;45732;52.850;6.896;2022-07-29T10:13:37;6.97;;;2.30;;
59854;SDS011;45732;52.850;6.896;2022-07-29T10:16:03;6.95;;;2.40;;
59854;SDS011;45732;52.850;6.896;2022-07-29T10:18:30;6.50;;;2.45;;
59854;SDS011;45732;52.850;6.896;2022-07-29T10:20:57;8.13;;;2.55;;
59854;SDS011;45732;52.850;6.896;2022-07-29T10:23:29;7.40;;;2.30;;
59854;SDS011;45732;52.850;6.896;2022-07-29T10:25:55;6.22;;;2.60;;
59854;SDS011;45732;52.850;6.896;2022-07-29T10:28:21;6.22;;;2.20;;
59854;SDS011;45732;52.850;6.896;2022-07-29T10:30:48;10.38;;;2.92;;
59854;SDS011;45732;52.850;6.896;2022-07-29T10:39:10;8.23;;;2.50;;
59854;SDS011;45732;52.850;6.896;2022-07-29T10:41:59;9.20;;;2.90;;
59854;SDS011;45732;52.850;6.896;2022-07-29T10:44:34;7.00;;;2.77;;
59854;SDS011;45732;52.850;6.896;2022-07-29T10:47:04;8.98;;;2.70;;
59854;SDS011;45732;52.850;6.896;2022-07-29T10:49:30;7.47;;;2.33;;
59854;SDS011;45732;52.850;6.896;2022-07-29T10:54:38;8.60;;;2.60;;
59854;SDS011;45732;52.850;6.896;2022-07-29T10:57:20;8.65;;;2.67;;
59854;SDS011;45732;52.850;6.896;2022-07-29T11:05:04;6.28;;;2.47;;
59854;SDS011;45732;52.850;6.896;2022-07-29T11:07:35;7.80;;;2.35;;
59854;SDS011;45732;52.850;6.896;2022-07-29T11:15:06;7.97;;;2.85;;
59854;SDS011;45732;52.850;6.896;2022-07-29T11:23:19;8.98;;;3.10;;
59854;SDS011;45732;52.850;6.896;2022-07-29T11:31:31;7.05;;;2.70;;
59854;SDS011;45732;52.850;6.896;2022-07-29T11:39:39;7.57;;;2.95;;
59854;SDS011;45732;52.850;6.896;2022-07-29T11:47:22;7.65;;;3.30;;
59854;SDS011;45732;52.850;6.896;2022-07-29T11:49:49;6.47;;;3.00;;
59854;SDS011;45732;52.850;6.896;2022-07-29T11:52:16;9.63;;;3.40;;
59854;SDS011;45732;52.850;6.896;2022-07-29T11:54:43;7.85;;;2.88;;
59854;SDS011;45732;52.850;6.896;2022-07-29T11:57:09;7.10;;;3.03;;
59854;SDS011;45732;52.850;6.896;2022-07-29T11:59:39;8.75;;;3.13;;
59854;SDS011;45732;52.850;6.896;2022-07-29T12:02:06;9.88;;;3.45;;
59854;SDS011;45732;52.850;6.896;2022-07-29T12:04:33;8.18;;;3.50;;
59854;SDS011;45732;52.850;6.896;2022-07-29T12:06:59;7.00;;;3.13;;
59854;SDS011;45732;52.850;6.896;2022-07-29T12:09:25;7.38;;;3.30;;
59854;SDS011;45732;52.850;6.896;2022-07-29T12:11:58;7.45;;;3.30;;
59854;SDS011;45732;52.850;6.896;2022-07-29T12:14:27;6.72;;;3.03;;
59854;SDS011;45732;52.850;6.896;2022-07-29T12:16:54;7.72;;;3.20;;
59854;SDS011;45732;52.850;6.896;2022-07-29T12:19:20;9.35;;;3.47;;
59854;SDS011;45732;52.850;6.896;2022-07-29T12:21:46;8.90;;;3.35;;
59854;SDS011;45732;52.850;6.896;2022-07-29T12:24:12;9.40;;;3.70;;
59854;SDS011;45732;52.850;6.896;2022-07-29T12:26:51;8.50;;;3.25;;
59854;SDS011;45732;52.850;6.896;2022-07-29T12:29:24;7.15;;;3.17;;
59854;SDS011;45732;52.850;6.896;2022-07-29T12:31:53;12.23;;;3.47;;
59854;SDS011;45732;52.850;6.896;2022-07-29T12:34:20;9.02;;;3.22;;
59854;SDS011;45732;52.850;6.896;2022-07-29T12:36:48;9.27;;;3.50;;
59854;SDS011;45732;52.850;6.896;2022-07-29T12:39:15;8.18;;;3.83;;
59854;SDS011;45732;52.850;6.896;2022-07-29T12:41:42;7.07;;;3.50;;
59854;SDS011;45732;52.850;6.896;2022-07-29T12:44:09;9.02;;;3.80;;
59854;SDS011;45732;52.850;6.896;2022-07-29T12:46:35;8.77;;;3.20;;
59854;SDS011;45732;52.850;6.896;2022-07-29T12:49:01;9.63;;;3.10;;
59854;SDS011;45732;52.850;6.896;2022-07-29T12:51:34;10.85;;;2.60;;
59854;SDS011;45732;52.850;6.896;2022-07-29T12:54:11;8.38;;;2.60;;
59854;SDS011;45732;52.850;6.896;2022-07-29T12:56:40;9.40;;;2.78;;
59854;SDS011;45732;52.850;6.896;2022-07-29T12:59:16;6.93;;;2.55;;
59854;SDS011;45732;52.850;6.896;2022-07-29T13:01:46;6.70;;;2.55;;
59854;SDS011;45732;52.850;6.896;2022-07-29T13:04:26;6.28;;;2.30;;
59854;SDS011;45732;52.850;6.896;2022-07-29T13:06:58;9.18;;;2.47;;
59854;SDS011;45732;52.850;6.896;2022-07-29T13:09:37;8.40;;;2.25;;
59854;SDS011;45732;52.850;6.896;2022-07-29T13:12:06;6.05;;;2.25;;
59854;SDS011;45732;52.850;6.896;2022-07-29T13:14:37;9.02;;;2.50;;
59854;SDS011;45732;52.850;6.896;2022-07-29T13:19:40;6.38;;;2.60;;
59854;SDS011;45732;52.850;6.896;2022-07-29T13:22:08;7.10;;;2.50;;
59854;SDS011;45732;52.850;6.896;2022-07-29T13:24:48;7.45;;;2.40;;
59854;SDS011;45732;52.850;6.896;2022-07-29T13:27:19;7.78;;;2.42;;
59854;SDS011;45732;52.850;6.896;2022-07-29T13:29:46;6.63;;;2.30;;
59854;SDS011;45732;52.850;6.896;2022-07-29T13:32:12;6.53;;;2.47;;
59854;SDS011;45732;52.850;6.896;2022-07-29T13:34:38;8.35;;;2.70;;
59854;SDS011;45732;52.850;6.896;2022-07-29T13:37:05;8.98;;;3.10;;
59854;SDS011;45732;52.850;6.896;2022-07-29T13:39:31;10.63;;;2.90;;
59854;SDS011;45732;52.850;6.896;2022-07-29T13:41:57;11.73;;;2.90;;
59854;SDS011;45732;52.850;6.896;2022-07-29T13:44:22;5.18;;;2.78;;
59854;SDS011;45732;52.850;6.896;2022-07-29T13:46:48;11.55;;;3.00;;
59854;SDS011;45732;52.850;6.896;2022-07-29T13:49:15;8.30;;;2.80;;
59854;SDS011;45732;52.850;6.896;2022-07-29T13:51:40;9.20;;;2.92;;
59854;SDS011;45732;52.850;6.896;2022-07-29T13:54:06;8.60;;;2.97;;
59854;SDS011;45732;52.850;6.896;2022-07-29T13:56:32;8.95;;;2.95;;
59854;SDS011;45732;52.850;6.896;2022-07-29T13:58:57;7.13;;;3.15;;
59854;SDS011;45732;52.850;6.896;2022-07-29T14:01:23;6.82;;;2.70;;
59854;SDS011;45732;52.850;6.896;2022-07-29T14:03:50;6.97;;;2.80;;
59854;SDS011;45732;52.850;6.896;2022-07-29T14:06:15;7.50;;;2.92;;
59854;SDS011;45732;52.850;6.896;2022-07-29T14:08:41;9.10;;;2.63;;
59854;SDS011;45732;52.850;6.896;2022-07-29T14:11:07;9.82;;;3.08;;
59854;SDS011;45732;52.850;6.896;2022-07-29T14:13:33;7.00;;;2.80;;
59854;SDS011;45732;52.850;6.896;2022-07-29T14:15:59;8.90;;;2.95;;
59854;SDS011;45732;52.850;6.896;2022-07-29T14:18:24;7.53;;;3.05;;
59854;SDS011;45732;52.850;6.896;2022-07-29T14:20:50;5.57;;;2.60;;
59854;SDS011;45732;52.850;6.896;2022-07-29T14:23:16;7.95;;;3.00;;
59854;SDS011;45732;52.850;6.896;2022-07-29T14:25:42;8.10;;;2.90;;
59854;SDS011;45732;52.850;6.896;2022-07-29T14:28:08;7.22;;;2.70;;
59854;SDS011;45732;52.850;6.896;2022-07-29T14:30:34;8.68;;;3.10;;
59854;SDS011;45732;52.850;6.896;2022-07-29T14:32:59;5.95;;;2.63;;
59854;SDS011;45732;52.850;6.896;2022-07-29T14:35:25;8.43;;;2.67;;
59854;SDS011;45732;52.850;6.896;2022-07-29T14:37:50;7.57;;;2.58;;
59854;SDS011;45732;52.850;6.896;2022-07-29T14:40:16;9.18;;;2.70;;
59854;SDS011;45732;52.850;6.896;2022-07-29T14:42:42;6.38;;;2.83;;
59854;SDS011;45732;52.850;6.896;2022-07-29T14:45:08;9.50;;;3.13;;
59854;SDS011;45732;52.850;6.896;2022-07-29T14:47:34;9.52;;;2.90;;
59854;SDS011;45732;52.850;6.896;2022-07-29T14:50:00;8.23;;;2.83;;
59854;SDS011;45732;52.850;6.896;2022-07-29T14:52:26;6.95;;;2.38;;
59854;SDS011;45732;52.850;6.896;2022-07-29T14:54:52;8.18;;;2.67;;
59854;SDS011;45732;52.850;6.896;2022-07-29T14:57:18;8.25;;;2.88;;
59854;SDS011;45732;52.850;6.896;2022-07-29T14:59:43;9.60;;;3.00;;
59854;SDS011;45732;52.850;6.896;2022-07-29T15:02:09;7.47;;;2.72;;
59854;SDS011;45732;52.850;6.896;2022-07-29T15:04:35;8.13;;;2.50;;
59854;SDS011;45732;52.850;6.896;2022-07-29T15:07:00;8.50;;;2.88;;
59854;SDS011;45732;52.850;6.896;2022-07-29T15:09:26;9.13;;;2.63;;
59854;SDS011;45732;52.850;6.896;2022-07-29T15:11:52;8.30;;;2.70;;
59854;SDS011;45732;52.850;6.896;2022-07-29T15:14:17;9.18;;;2.65;;
59854;SDS011;45732;52.850;6.896;2022-07-29T15:16:43;7.03;;;2.40;;
59854;SDS011;45732;52.850;6.896;2022-07-29T15:19:12;6.35;;;2.90;;
59854;SDS011;45732;52.850;6.896;2022-07-29T15:21:38;5.28;;;2.42;;
59854;SDS011;45732;52.850;6.896;2022-07-29T15:24:04;7.70;;;2.28;;
59854;SDS011;45732;52.850;6.896;2022-07-29T15:26:32;7.93;;;2.70;;
59854;SDS011;45732;52.850;6.896;2022-07-29T15:28:57;8.95;;;2.53;;
59854;SDS011;45732;52.850;6.896;2022-07-29T15:31:24;6.30;;;2.60;;
59854;SDS011;45732;52.850;6.896;2022-07-29T15:33:49;6.68;;;2.55;;
59854;SDS011;45732;52.850;6.896;2022-07-29T15:39:16;7.03;;;3.05;;
59854;SDS011;45732;52.850;6.896;2022-07-29T15:42:00;5.47;;;2.30;;
59854;SDS011;45732;52.850;6.896;2022-07-29T15:44:35;6.45;;;2.53;;
59854;SDS011;45732;52.850;6.896;2022-07-29T15:47:00;8.93;;;2.42;;
59854;SDS011;45732;52.850;6.896;2022-07-29T15:49:33;9.05;;;2.50;;
59854;SDS011;45732;52.850;6.896;2022-07-29T15:52:04;10.00;;;2.97;;
59854;SDS011;45732;52.850;6.896;2022-07-29T15:54:33;6.32;;;2.10;;
59854;SDS011;45732;52.850;6.896;2022-07-29T15:57:00;8.27;;;2.40;;
59854;SDS011;45732;52.850;6.896;2022-07-29T15:59:27;8.02;;;2.42;;
59854;SDS011;45732;52.850;6.896;2022-07-29T16:01:52;7.80;;;2.28;;